sensor_id;sensor_type;location;lat;lon;timestamp;P1;durP1;ratioP1;P2;durP2;ratioP2
53652;SDS011;39553;52.954;5.932;2023-07-22T07:49:02;23.65;;;13.50;;
53652;SDS011;39553;52.954;5.932;2023-07-22T07:51:29;23.77;;;13.43;;
53652;SDS011;39553;52.954;5.932;2023-07-22T07:56:31;20.65;;;12.10;;
53652;SDS011;39553;52.954;5.932;2023-07-22T07:58:57;21.45;;;12.68;;
53652;SDS011;39553;52.954;5.932;2023-07-22T08:01:23;22.35;;;12.05;;
53652;SDS011;39553;52.954;5.932;2023-07-22T08:03:49;19.35;;;11.70;;
53652;SDS011;39553;52.954;5.932;2023-07-22T08:06:15;25.08;;;12.70;;
53652;SDS011;39553;52.954;5.932;2023-07-22T08:08:41;22.17;;;12.70;;
53652;SDS011;39553;52.954;5.932;2023-07-22T08:11:08;18.88;;;13.07;;
53652;SDS011;39553;52.954;5.932;2023-07-22T08:13:36;24.67;;;14.35;;
53652;SDS011;39553;52.954;5.932;2023-07-22T08:16:03;27.55;;;14.10;;
53652;SDS011;39553;52.954;5.932;2023-07-22T08:18:30;21.55;;;13.27;;
53652;SDS011;39553;52.954;5.932;2023-07-22T08:20:57;24.75;;;13.73;;
53652;SDS011;39553;52.954;5.932;2023-07-22T08:23:23;20.42;;;11.75;;
53652;SDS011;39553;52.954;5.932;2023-07-22T08:25:49;18.98;;;11.13;;
53652;SDS011;39553;52.954;5.932;2023-07-22T08:28:16;23.05;;;12.55;;
53652;SDS011;39553;52.954;5.932;2023-07-22T08:30:43;24.25;;;12.93;;
53652;SDS011;39553;52.954;5.932;2023-07-22T08:33:10;27.50;;;13.82;;
53652;SDS011;39553;52.954;5.932;2023-07-22T08:35:41;23.10;;;13.65;;
53652;SDS011;39553;52.954;5.932;2023-07-22T08:38:08;23.60;;;13.13;;
53652;SDS011;39553;52.954;5.932;2023-07-22T08:40:34;23.95;;;14.30;;
53652;SDS011;39553;52.954;5.932;2023-07-22T08:43:08;27.40;;;14.50;;
53652;SDS011;39553;52.954;5.932;2023-07-22T08:45:35;26.35;;;13.48;;
53652;SDS011;39553;52.954;5.932;2023-07-22T08:48:04;30.23;;;14.50;;
53652;SDS011;39553;52.954;5.932;2023-07-22T08:53:29;17.85;;;10.32;;
53652;SDS011;39553;52.954;5.932;2023-07-22T08:55:58;19.02;;;11.15;;
53652;SDS011;39553;52.954;5.932;2023-07-22T08:58:24;18.23;;;9.95;;
53652;SDS011;39553;52.954;5.932;2023-07-22T09:00:51;18.23;;;10.27;;
53652;SDS011;39553;52.954;5.932;2023-07-22T09:03:18;15.35;;;9.32;;
53652;SDS011;39553;52.954;5.932;2023-07-22T09:05:45;10.90;;;8.52;;
53652;SDS011;39553;52.954;5.932;2023-07-22T09:08:11;13.95;;;8.48;;
53652;SDS011;39553;52.954;5.932;2023-07-22T09:10:39;11.05;;;7.38;;
53652;SDS011;39553;52.954;5.932;2023-07-22T09:13:05;12.20;;;7.68;;
53652;SDS011;39553;52.954;5.932;2023-07-22T09:15:34;9.77;;;6.15;;
53652;SDS011;39553;52.954;5.932;2023-07-22T09:18:05;9.95;;;5.53;;
53652;SDS011;39553;52.954;5.932;2023-07-22T09:20:32;9.00;;;5.25;;
53652;SDS011;39553;52.954;5.932;2023-07-22T09:22:59;5.53;;;3.95;;
53652;SDS011;39553;52.954;5.932;2023-07-22T09:25:27;4.85;;;3.80;;
53652;SDS011;39553;52.954;5.932;2023-07-22T09:27:54;5.25;;;4.43;;
53652;SDS011;39553;52.954;5.932;2023-07-22T09:33:26;7.55;;;4.13;;
53652;SDS011;39553;52.954;5.932;2023-07-22T09:35:52;5.68;;;3.88;;
53652;SDS011;39553;52.954;5.932;2023-07-22T09:38:23;7.63;;;3.97;;
53652;SDS011;39553;52.954;5.932;2023-07-22T09:40:50;5.50;;;4.45;;
53652;SDS011;39553;52.954;5.932;2023-07-22T09:43:17;7.30;;;4.15;;
53652;SDS011;39553;52.954;5.932;2023-07-22T09:45:46;7.10;;;4.30;;
53652;SDS011;39553;52.954;5.932;2023-07-22T09:48:12;6.00;;;4.85;;
53652;SDS011;39553;52.954;5.932;2023-07-22T09:50:39;6.20;;;5.18;;
53652;SDS011;39553;52.954;5.932;2023-07-22T09:53:07;7.45;;;5.38;;
53652;SDS011;39553;52.954;5.932;2023-07-22T09:55:33;6.57;;;4.65;;
53652;SDS011;39553;52.954;5.932;2023-07-22T09:58:00;8.75;;;5.90;;
53652;SDS011;39553;52.954;5.932;2023-07-22T10:00:28;8.57;;;5.68;;
53652;SDS011;39553;52.954;5.932;2023-07-22T10:02:56;11.18;;;6.47;;
53652;SDS011;39553;52.954;5.932;2023-07-22T10:05:23;9.77;;;7.47;;
53652;SDS011;39553;52.954;5.932;2023-07-22T10:07:54;9.15;;;6.95;;
53652;SDS011;39553;52.954;5.932;2023-07-22T10:10:23;12.18;;;7.05;;
53652;SDS011;39553;52.954;5.932;2023-07-22T10:12:59;12.15;;;7.00;;
53652;SDS011;39553;52.954;5.932;2023-07-22T10:15:27;10.95;;;7.88;;
53652;SDS011;39553;52.954;5.932;2023-07-22T10:17:55;15.45;;;9.32;;
53652;SDS011;39553;52.954;5.932;2023-07-22T10:20:22;11.88;;;8.45;;
53652;SDS011;39553;52.954;5.932;2023-07-22T10:22:48;12.93;;;9.45;;
53652;SDS011;39553;52.954;5.932;2023-07-22T10:25:15;10.65;;;8.20;;
53652;SDS011;39553;52.954;5.932;2023-07-22T10:27:43;12.98;;;8.52;;
53652;SDS011;39553;52.954;5.932;2023-07-22T10:33:51;11.70;;;8.32;;
53652;SDS011;39553;52.954;5.932;2023-07-22T10:36:17;15.23;;;10.32;;
53652;SDS011;39553;52.954;5.932;2023-07-22T10:38:43;13.82;;;9.63;;
53652;SDS011;39553;52.954;5.932;2023-07-22T10:41:19;13.50;;;10.52;;
53652;SDS011;39553;52.954;5.932;2023-07-22T10:43:54;14.48;;;10.60;;
53652;SDS011;39553;52.954;5.932;2023-07-22T10:46:30;18.42;;;12.18;;
53652;SDS011;39553;52.954;5.932;2023-07-22T10:49:13;16.85;;;12.75;;
53652;SDS011;39553;52.954;5.932;2023-07-22T10:51:41;16.38;;;12.10;;
53652;SDS011;39553;52.954;5.932;2023-07-22T10:54:31;20.83;;;13.35;;
53652;SDS011;39553;52.954;5.932;2023-07-22T10:57:02;17.90;;;13.77;;
53652;SDS011;39553;52.954;5.932;2023-07-22T10:59:32;19.15;;;13.73;;
53652;SDS011;39553;52.954;5.932;2023-07-22T11:01:59;17.25;;;13.25;;
53652;SDS011;39553;52.954;5.932;2023-07-22T11:04:25;16.80;;;13.25;;
53652;SDS011;39553;52.954;5.932;2023-07-22T11:07:00;17.95;;;12.93;;
53652;SDS011;39553;52.954;5.932;2023-07-22T11:12:06;17.88;;;13.20;;
53652;SDS011;39553;52.954;5.932;2023-07-22T11:14:49;18.67;;;13.77;;
53652;SDS011;39553;52.954;5.932;2023-07-22T11:17:17;18.67;;;13.70;;
53652;SDS011;39553;52.954;5.932;2023-07-22T11:19:44;17.35;;;12.40;;
53652;SDS011;39553;52.954;5.932;2023-07-22T11:22:10;16.88;;;12.68;;
53652;SDS011;39553;52.954;5.932;2023-07-22T11:24:36;16.00;;;11.27;;
53652;SDS011;39553;52.954;5.932;2023-07-22T11:27:03;15.88;;;11.07;;
53652;SDS011;39553;52.954;5.932;2023-07-22T11:29:30;14.73;;;10.25;;
53652;SDS011;39553;52.954;5.932;2023-07-22T11:31:56;15.80;;;11.38;;
53652;SDS011;39553;52.954;5.932;2023-07-22T11:34:23;23.10;;;12.25;;
53652;SDS011;39553;52.954;5.932;2023-07-22T11:36:49;21.65;;;12.38;;
53652;SDS011;39553;52.954;5.932;2023-07-22T11:39:24;21.52;;;13.80;;
53652;SDS011;39553;52.954;5.932;2023-07-22T11:42:07;65.50;;;18.10;;
53652;SDS011;39553;52.954;5.932;2023-07-22T11:44:33;31.65;;;17.08;;
53652;SDS011;39553;52.954;5.932;2023-07-22T11:47:03;30.00;;;18.08;;
53652;SDS011;39553;52.954;5.932;2023-07-22T11:49:31;27.92;;;17.42;;
53652;SDS011;39553;52.954;5.932;2023-07-22T11:51:58;32.47;;;18.83;;
53652;SDS011;39553;52.954;5.932;2023-07-22T11:54:26;41.40;;;20.42;;
53652;SDS011;39553;52.954;5.932;2023-07-22T11:56:53;45.22;;;19.98;;
53652;SDS011;39553;52.954;5.932;2023-07-22T11:59:32;36.72;;;20.08;;
53652;SDS011;39553;52.954;5.932;2023-07-22T12:01:59;42.40;;;21.63;;
53652;SDS011;39553;52.954;5.932;2023-07-22T12:04:27;37.33;;;20.77;;
53652;SDS011;39553;52.954;5.932;2023-07-22T12:06:52;50.63;;;20.55;;
53652;SDS011;39553;52.954;5.932;2023-07-22T12:09:18;35.42;;;19.80;;
53652;SDS011;39553;52.954;5.932;2023-07-22T12:11:44;35.00;;;19.48;;
53652;SDS011;39553;52.954;5.932;2023-07-22T12:14:13;32.15;;;18.88;;
53652;SDS011;39553;52.954;5.932;2023-07-22T12:16:40;35.15;;;18.00;;
53652;SDS011;39553;52.954;5.932;2023-07-22T12:19:07;29.02;;;14.82;;
53652;SDS011;39553;52.954;5.932;2023-07-22T12:21:34;23.85;;;13.23;;
53652;SDS011;39553;52.954;5.932;2023-07-22T12:24:00;18.02;;;11.05;;
53652;SDS011;39553;52.954;5.932;2023-07-22T12:26:27;20.15;;;8.50;;
53652;SDS011;39553;52.954;5.932;2023-07-22T12:28:53;18.08;;;8.57;;
53652;SDS011;39553;52.954;5.932;2023-07-22T12:31:19;12.25;;;7.47;;
53652;SDS011;39553;52.954;5.932;2023-07-22T12:33:45;11.40;;;7.20;;
53652;SDS011;39553;52.954;5.932;2023-07-22T12:36:11;12.57;;;6.22;;
53652;SDS011;39553;52.954;5.932;2023-07-22T12:38:37;9.27;;;5.85;;
53652;SDS011;39553;52.954;5.932;2023-07-22T12:41:03;11.43;;;5.13;;
53652;SDS011;39553;52.954;5.932;2023-07-22T12:43:29;9.75;;;5.20;;
53652;SDS011;39553;52.954;5.932;2023-07-22T12:45:55;6.20;;;4.80;;
53652;SDS011;39553;52.954;5.932;2023-07-22T12:48:22;12.23;;;5.97;;
53652;SDS011;39553;52.954;5.932;2023-07-22T12:50:49;8.65;;;4.22;;
53652;SDS011;39553;52.954;5.932;2023-07-22T12:53:16;5.35;;;3.58;;
53652;SDS011;39553;52.954;5.932;2023-07-22T12:55:41;7.88;;;3.95;;
53652;SDS011;39553;52.954;5.932;2023-07-22T12:58:07;7.30;;;3.38;;
53652;SDS011;39553;52.954;5.932;2023-07-22T13:00:33;10.95;;;3.55;;
53652;SDS011;39553;52.954;5.932;2023-07-22T13:02:59;4.50;;;3.30;;
53652;SDS011;39553;52.954;5.932;2023-07-22T13:05:24;8.35;;;2.95;;
53652;SDS011;39553;52.954;5.932;2023-07-22T13:07:50;9.50;;;4.10;;
53652;SDS011;39553;52.954;5.932;2023-07-22T13:10:18;5.72;;;3.38;;
53652;SDS011;39553;52.954;5.932;2023-07-22T13:12:45;10.60;;;3.97;;
53652;SDS011;39553;52.954;5.932;2023-07-22T13:15:11;4.82;;;3.08;;
53652;SDS011;39553;52.954;5.932;2023-07-22T13:17:37;6.70;;;3.10;;
53652;SDS011;39553;52.954;5.932;2023-07-22T13:20:04;6.65;;;2.92;;
53652;SDS011;39553;52.954;5.932;2023-07-22T13:22:34;8.77;;;2.95;;
53652;SDS011;39553;52.954;5.932;2023-07-22T13:25:01;4.38;;;2.67;;
53652;SDS011;39553;52.954;5.932;2023-07-22T13:27:28;12.05;;;2.60;;
53652;SDS011;39553;52.954;5.932;2023-07-22T13:29:54;6.20;;;2.60;;
53652;SDS011;39553;52.954;5.932;2023-07-22T13:32:20;4.80;;;3.00;;
53652;SDS011;39553;52.954;5.932;2023-07-22T13:34:46;6.13;;;2.60;;
53652;SDS011;39553;52.954;5.932;2023-07-22T13:37:12;3.45;;;1.98;;
53652;SDS011;39553;52.954;5.932;2023-07-22T13:39:37;6.13;;;2.47;;
53652;SDS011;39553;52.954;5.932;2023-07-22T13:42:03;4.75;;;2.78;;
53652;SDS011;39553;52.954;5.932;2023-07-22T13:44:29;5.95;;;2.45;;
53652;SDS011;39553;52.954;5.932;2023-07-22T13:46:56;5.60;;;2.58;;
53652;SDS011;39553;52.954;5.932;2023-07-22T13:49:21;4.88;;;3.17;;
53652;SDS011;39553;52.954;5.932;2023-07-22T13:51:50;3.63;;;2.70;;
53652;SDS011;39553;52.954;5.932;2023-07-22T13:54:16;4.20;;;2.70;;
53652;SDS011;39553;52.954;5.932;2023-07-22T13:56:41;6.25;;;3.03;;
53652;SDS011;39553;52.954;5.932;2023-07-22T13:59:08;6.45;;;3.00;;
53652;SDS011;39553;52.954;5.932;2023-07-22T14:01:34;5.25;;;2.90;;
53652;SDS011;39553;52.954;5.932;2023-07-22T14:04:00;6.20;;;3.53;;
53652;SDS011;39553;52.954;5.932;2023-07-22T14:06:26;9.02;;;3.20;;
53652;SDS011;39553;52.954;5.932;2023-07-22T14:08:52;9.48;;;3.42;;
53652;SDS011;39553;52.954;5.932;2023-07-22T14:11:18;7.03;;;4.07;;
53652;SDS011;39553;52.954;5.932;2023-07-22T14:13:44;8.15;;;3.97;;
53652;SDS011;39553;52.954;5.932;2023-07-22T14:16:10;7.65;;;3.72;;
53652;SDS011;39553;52.954;5.932;2023-07-22T14:18:36;8.73;;;3.35;;
53652;SDS011;39553;52.954;5.932;2023-07-22T14:21:02;8.07;;;3.88;;
53652;SDS011;39553;52.954;5.932;2023-07-22T14:23:28;7.97;;;3.92;;
53652;SDS011;39553;52.954;5.932;2023-07-22T14:25:54;7.88;;;3.83;;
53652;SDS011;39553;52.954;5.932;2023-07-22T14:28:19;7.18;;;4.03;;
53652;SDS011;39553;52.954;5.932;2023-07-22T14:30:45;6.57;;;3.83;;
53652;SDS011;39553;52.954;5.932;2023-07-22T14:33:11;8.02;;;4.20;;
53652;SDS011;39553;52.954;5.932;2023-07-22T14:35:37;8.63;;;3.95;;
53652;SDS011;39553;52.954;5.932;2023-07-22T14:38:03;5.63;;;4.30;;
53652;SDS011;39553;52.954;5.932;2023-07-22T14:40:29;10.50;;;4.20;;
53652;SDS011;39553;52.954;5.932;2023-07-22T14:42:54;7.45;;;4.18;;
53652;SDS011;39553;52.954;5.932;2023-07-22T14:45:20;9.77;;;4.90;;
53652;SDS011;39553;52.954;5.932;2023-07-22T14:47:46;7.82;;;4.78;;
53652;SDS011;39553;52.954;5.932;2023-07-22T14:50:13;15.13;;;4.78;;
53652;SDS011;39553;52.954;5.932;2023-07-22T14:52:39;8.73;;;4.13;;
53652;SDS011;39553;52.954;5.932;2023-07-22T14:55:05;8.50;;;4.90;;
53652;SDS011;39553;52.954;5.932;2023-07-22T14:57:31;8.82;;;4.57;;
53652;SDS011;39553;52.954;5.932;2023-07-22T14:59:57;10.05;;;5.40;;
53652;SDS011;39553;52.954;5.932;2023-07-22T15:02:23;7.45;;;4.50;;
53652;SDS011;39553;52.954;5.932;2023-07-22T15:04:49;10.18;;;4.80;;
53652;SDS011;39553;52.954;5.932;2023-07-22T15:07:15;8.98;;;4.50;;
53652;SDS011;39553;52.954;5.932;2023-07-22T15:09:40;7.63;;;4.90;;
53652;SDS011;39553;52.954;5.932;2023-07-22T15:12:06;7.55;;;4.13;;
53652;SDS011;39553;52.954;5.932;2023-07-22T15:14:33;7.60;;;4.20;;
53652;SDS011;39553;52.954;5.932;2023-07-22T15:17:01;7.53;;;3.97;;
53652;SDS011;39553;52.954;5.932;2023-07-22T15:19:27;6.65;;;3.97;;
53652;SDS011;39553;52.954;5.932;2023-07-22T15:21:53;11.20;;;4.25;;
53652;SDS011;39553;52.954;5.932;2023-07-22T15:24:21;8.65;;;3.85;;
53652;SDS011;39553;52.954;5.932;2023-07-22T15:26:47;6.53;;;3.80;;
53652;SDS011;39553;52.954;5.932;2023-07-22T15:29:13;9.65;;;4.43;;
53652;SDS011;39553;52.954;5.932;2023-07-22T15:31:39;7.53;;;4.03;;
53652;SDS011;39553;52.954;5.932;2023-07-22T15:34:05;9.73;;;4.68;;
53652;SDS011;39553;52.954;5.932;2023-07-22T15:36:30;5.97;;;4.03;;
53652;SDS011;39553;52.954;5.932;2023-07-22T15:38:56;8.13;;;4.13;;
53652;SDS011;39553;52.954;5.932;2023-07-22T15:41:22;7.75;;;4.28;;
53652;SDS011;39553;52.954;5.932;2023-07-22T15:43:54;9.38;;;3.97;;
53652;SDS011;39553;52.954;5.932;2023-07-22T15:46:20;10.05;;;4.18;;
53652;SDS011;39553;52.954;5.932;2023-07-22T15:48:46;6.05;;;3.88;;
53652;SDS011;39553;52.954;5.932;2023-07-22T15:51:12;7.22;;;4.25;;
53652;SDS011;39553;52.954;5.932;2023-07-22T15:53:38;8.48;;;4.28;;
53652;SDS011;39553;52.954;5.932;2023-07-22T15:56:04;9.10;;;4.03;;
53652;SDS011;39553;52.954;5.932;2023-07-22T15:58:30;7.53;;;4.70;;
53652;SDS011;39553;52.954;5.932;2023-07-22T16:00:55;6.78;;;4.13;;
53652;SDS011;39553;52.954;5.932;2023-07-22T16:03:21;8.90;;;4.68;;
53652;SDS011;39553;52.954;5.932;2023-07-22T16:05:47;6.60;;;4.25;;
53652;SDS011;39553;52.954;5.932;2023-07-22T16:08:13;8.35;;;4.22;;
53652;SDS011;39553;52.954;5.932;2023-07-22T16:10:40;11.30;;;4.03;;
53652;SDS011;39553;52.954;5.932;2023-07-22T16:13:06;11.15;;;4.20;;
53652;SDS011;39553;52.954;5.932;2023-07-22T16:15:31;7.10;;;4.22;;
53652;SDS011;39553;52.954;5.932;2023-07-22T16:17:57;9.23;;;4.45;;
53652;SDS011;39553;52.954;5.932;2023-07-22T16:20:23;8.52;;;4.32;;
53652;SDS011;39553;52.954;5.932;2023-07-22T16:22:49;7.72;;;3.95;;
53652;SDS011;39553;52.954;5.932;2023-07-22T16:25:15;8.93;;;3.92;;
53652;SDS011;39553;52.954;5.932;2023-07-22T16:27:40;8.85;;;4.60;;
53652;SDS011;39553;52.954;5.932;2023-07-22T16:30:06;8.82;;;3.88;;
53652;SDS011;39553;52.954;5.932;2023-07-22T16:32:35;13.48;;;4.15;;
53652;SDS011;39553;52.954;5.932;2023-07-22T16:35:01;6.43;;;3.70;;
53652;SDS011;39553;52.954;5.932;2023-07-22T16:37:27;8.18;;;3.92;;
53652;SDS011;39553;52.954;5.932;2023-07-22T16:39:53;8.07;;;3.72;;
53652;SDS011;39553;52.954;5.932;2023-07-22T16:42:20;10.10;;;4.07;;
53652;SDS011;39553;52.954;5.932;2023-07-22T16:44:46;6.90;;;3.38;;
53652;SDS011;39553;52.954;5.932;2023-07-22T16:47:12;7.47;;;3.85;;
53652;SDS011;39553;52.954;5.932;2023-07-22T16:49:38;11.18;;;4.20;;
53652;SDS011;39553;52.954;5.932;2023-07-22T16:52:04;8.18;;;4.57;;
53652;SDS011;39553;52.954;5.932;2023-07-22T16:54:30;11.80;;;4.40;;
53652;SDS011;39553;52.954;5.932;2023-07-22T16:56:57;10.07;;;4.18;;
53652;SDS011;39553;52.954;5.932;2023-07-22T16:59:24;6.53;;;3.83;;
53652;SDS011;39553;52.954;5.932;2023-07-22T17:01:51;9.50;;;4.20;;
53652;SDS011;39553;52.954;5.932;2023-07-22T17:04:17;10.75;;;4.70;;
53652;SDS011;39553;52.954;5.932;2023-07-22T17:06:43;6.45;;;4.22;;
53652;SDS011;39553;52.954;5.932;2023-07-22T17:09:09;6.38;;;4.18;;
53652;SDS011;39553;52.954;5.932;2023-07-22T17:11:37;11.80;;;4.82;;
53652;SDS011;39553;52.954;5.932;2023-07-22T17:14:03;10.43;;;4.28;;
53652;SDS011;39553;52.954;5.932;2023-07-22T17:16:29;9.68;;;4.32;;
53652;SDS011;39553;52.954;5.932;2023-07-22T17:18:57;11.63;;;4.93;;
53652;SDS011;39553;52.954;5.932;2023-07-22T17:21:23;10.77;;;4.60;;
53652;SDS011;39553;52.954;5.932;2023-07-22T17:23:48;7.32;;;3.78;;
53652;SDS011;39553;52.954;5.932;2023-07-22T17:26:14;10.77;;;4.20;;
53652;SDS011;39553;52.954;5.932;2023-07-22T17:28:40;9.80;;;3.88;;
53652;SDS011;39553;52.954;5.932;2023-07-22T17:31:06;10.25;;;4.47;;
53652;SDS011;39553;52.954;5.932;2023-07-22T17:33:32;8.73;;;4.00;;
53652;SDS011;39553;52.954;5.932;2023-07-22T17:35:58;8.73;;;4.57;;
53652;SDS011;39553;52.954;5.932;2023-07-22T17:38:24;6.28;;;4.47;;
53652;SDS011;39553;52.954;5.932;2023-07-22T17:40:50;8.68;;;4.20;;
53652;SDS011;39553;52.954;5.932;2023-07-22T17:43:16;9.73;;;4.70;;
53652;SDS011;39553;52.954;5.932;2023-07-22T17:45:42;8.77;;;4.90;;
53652;SDS011;39553;52.954;5.932;2023-07-22T17:48:08;8.90;;;4.40;;
53652;SDS011;39553;52.954;5.932;2023-07-22T17:50:34;9.63;;;4.60;;
53652;SDS011;39553;52.954;5.932;2023-07-22T17:53:01;9.02;;;4.30;;
53652;SDS011;39553;52.954;5.932;2023-07-22T17:55:27;9.95;;;4.93;;
53652;SDS011;39553;52.954;5.932;2023-07-22T17:57:54;10.50;;;5.40;;
53652;SDS011;39553;52.954;5.932;2023-07-22T18:00:19;12.27;;;5.80;;
53652;SDS011;39553;52.954;5.932;2023-07-22T18:02:45;8.05;;;5.38;;
53652;SDS011;39553;52.954;5.932;2023-07-22T18:05:11;11.10;;;5.50;;
53652;SDS011;39553;52.954;5.932;2023-07-22T18:07:37;13.57;;;5.90;;
53652;SDS011;39553;52.954;5.932;2023-07-22T18:10:03;13.25;;;6.00;;
53652;SDS011;39553;52.954;5.932;2023-07-22T18:12:30;7.00;;;5.13;;
53652;SDS011;39553;52.954;5.932;2023-07-22T18:14:56;14.07;;;6.38;;
53652;SDS011;39553;52.954;5.932;2023-07-22T18:17:22;9.45;;;5.15;;
53652;SDS011;39553;52.954;5.932;2023-07-22T18:19:48;9.30;;;5.75;;
53652;SDS011;39553;52.954;5.932;2023-07-22T18:22:14;9.45;;;5.10;;
53652;SDS011;39553;52.954;5.932;2023-07-22T18:24:40;10.02;;;5.88;;
53652;SDS011;39553;52.954;5.932;2023-07-22T18:27:06;10.98;;;6.25;;
53652;SDS011;39553;52.954;5.932;2023-07-22T18:29:32;8.35;;;6.05;;
53652;SDS011;39553;52.954;5.932;2023-07-22T18:31:58;15.00;;;6.32;;
53652;SDS011;39553;52.954;5.932;2023-07-22T18:34:24;11.15;;;5.50;;
53652;SDS011;39553;52.954;5.932;2023-07-22T18:36:51;13.52;;;6.35;;
53652;SDS011;39553;52.954;5.932;2023-07-22T18:39:17;9.18;;;5.70;;
53652;SDS011;39553;52.954;5.932;2023-07-22T18:41:43;10.18;;;5.47;;
53652;SDS011;39553;52.954;5.932;2023-07-22T18:44:09;11.10;;;5.72;;
53652;SDS011;39553;52.954;5.932;2023-07-22T18:46:35;8.88;;;5.63;;
53652;SDS011;39553;52.954;5.932;2023-07-22T18:49:02;6.40;;;5.25;;
53652;SDS011;39553;52.954;5.932;2023-07-22T18:51:30;11.07;;;6.03;;
53652;SDS011;39553;52.954;5.932;2023-07-22T18:53:59;14.95;;;5.88;;
53652;SDS011;39553;52.954;5.932;2023-07-22T18:56:25;11.90;;;4.85;;
53652;SDS011;39553;52.954;5.932;2023-07-22T18:58:55;8.57;;;5.40;;
53652;SDS011;39553;52.954;5.932;2023-07-22T19:01:21;9.50;;;4.90;;
53652;SDS011;39553;52.954;5.932;2023-07-22T19:03:47;9.07;;;4.85;;
53652;SDS011;39553;52.954;5.932;2023-07-22T19:06:13;8.88;;;4.85;;
53652;SDS011;39553;52.954;5.932;2023-07-22T19:08:39;8.70;;;4.30;;
53652;SDS011;39553;52.954;5.932;2023-07-22T19:11:05;9.38;;;5.10;;
53652;SDS011;39553;52.954;5.932;2023-07-22T19:13:34;13.93;;;5.65;;
53652;SDS011;39553;52.954;5.932;2023-07-22T19:15:59;12.52;;;4.15;;
53652;SDS011;39553;52.954;5.932;2023-07-22T19:18:25;9.57;;;4.63;;
53652;SDS011;39553;52.954;5.932;2023-07-22T19:20:58;7.88;;;4.18;;
53652;SDS011;39553;52.954;5.932;2023-07-22T19:25:55;8.57;;;4.47;;
53652;SDS011;39553;52.954;5.932;2023-07-22T19:28:22;13.32;;;4.53;;
53652;SDS011;39553;52.954;5.932;2023-07-22T19:30:54;12.32;;;5.40;;
53652;SDS011;39553;52.954;5.932;2023-07-22T19:33:24;12.47;;;5.90;;
53652;SDS011;39553;52.954;5.932;2023-07-22T19:38:34;9.50;;;5.28;;
53652;SDS011;39553;52.954;5.932;2023-07-22T19:41:04;9.07;;;4.80;;
53652;SDS011;39553;52.954;5.932;2023-07-22T19:43:35;14.55;;;6.25;;
53652;SDS011;39553;52.954;5.932;2023-07-22T19:46:02;11.70;;;5.93;;
53652;SDS011;39553;52.954;5.932;2023-07-22T19:48:30;18.95;;;5.95;;
53652;SDS011;39553;52.954;5.932;2023-07-22T19:51:00;10.52;;;4.93;;
53652;SDS011;39553;52.954;5.932;2023-07-22T19:53:26;11.45;;;4.93;;
53652;SDS011;39553;52.954;5.932;2023-07-22T19:55:53;9.40;;;4.90;;
53652;SDS011;39553;52.954;5.932;2023-07-22T19:58:20;14.43;;;5.65;;
53652;SDS011;39553;52.954;5.932;2023-07-22T20:00:47;17.80;;;4.88;;
53652;SDS011;39553;52.954;5.932;2023-07-22T20:03:14;16.85;;;5.40;;
53652;SDS011;39553;52.954;5.932;2023-07-22T20:05:40;13.10;;;4.85;;
53652;SDS011;39553;52.954;5.932;2023-07-22T20:08:09;8.43;;;5.05;;
53652;SDS011;39553;52.954;5.932;2023-07-22T20:10:35;15.80;;;5.45;;
53652;SDS011;39553;52.954;5.932;2023-07-22T20:13:01;16.85;;;5.95;;
53652;SDS011;39553;52.954;5.932;2023-07-22T20:15:27;16.95;;;5.82;;
53652;SDS011;39553;52.954;5.932;2023-07-22T20:17:54;13.23;;;6.10;;
53652;SDS011;39553;52.954;5.932;2023-07-22T20:20:20;13.15;;;6.07;;
53652;SDS011;39553;52.954;5.932;2023-07-22T20:22:46;14.23;;;5.78;;
53652;SDS011;39553;52.954;5.932;2023-07-22T20:25:12;15.23;;;6.15;;
53652;SDS011;39553;52.954;5.932;2023-07-22T20:27:38;14.02;;;6.40;;
53652;SDS011;39553;52.954;5.932;2023-07-22T20:30:04;16.63;;;6.65;;
53652;SDS011;39553;52.954;5.932;2023-07-22T20:32:30;16.05;;;6.13;;
53652;SDS011;39553;52.954;5.932;2023-07-22T20:34:56;22.83;;;5.80;;
53652;SDS011;39553;52.954;5.932;2023-07-22T20:37:22;9.60;;;5.72;;
53652;SDS011;39553;52.954;5.932;2023-07-22T20:39:48;11.98;;;5.60;;
53652;SDS011;39553;52.954;5.932;2023-07-22T20:42:14;15.15;;;5.38;;
53652;SDS011;39553;52.954;5.932;2023-07-22T20:44:40;12.23;;;6.07;;
53652;SDS011;39553;52.954;5.932;2023-07-22T20:47:06;12.25;;;5.28;;
53652;SDS011;39553;52.954;5.932;2023-07-22T20:49:32;12.70;;;5.70;;
53652;SDS011;39553;52.954;5.932;2023-07-22T20:51:58;13.68;;;6.97;;
53652;SDS011;39553;52.954;5.932;2023-07-22T20:54:24;14.40;;;6.43;;
53652;SDS011;39553;52.954;5.932;2023-07-22T20:56:53;14.18;;;6.57;;
53652;SDS011;39553;52.954;5.932;2023-07-22T20:59:19;14.73;;;6.53;;
53652;SDS011;39553;52.954;5.932;2023-07-22T21:01:44;15.55;;;6.88;;
53652;SDS011;39553;52.954;5.932;2023-07-22T21:04:10;12.68;;;6.90;;
53652;SDS011;39553;52.954;5.932;2023-07-22T21:06:36;16.85;;;7.10;;
53652;SDS011;39553;52.954;5.932;2023-07-22T21:09:05;14.27;;;6.47;;
53652;SDS011;39553;52.954;5.932;2023-07-22T21:11:31;18.73;;;7.78;;
53652;SDS011;39553;52.954;5.932;2023-07-22T21:13:56;15.95;;;7.55;;
53652;SDS011;39553;52.954;5.932;2023-07-22T21:16:22;14.90;;;7.10;;
53652;SDS011;39553;52.954;5.932;2023-07-22T21:18:48;14.98;;;7.47;;
53652;SDS011;39553;52.954;5.932;2023-07-22T21:21:14;19.30;;;8.60;;
53652;SDS011;39553;52.954;5.932;2023-07-22T21:23:43;22.02;;;8.70;;
53652;SDS011;39553;52.954;5.932;2023-07-22T21:26:09;16.95;;;9.10;;
53652;SDS011;39553;52.954;5.932;2023-07-22T21:28:36;19.17;;;9.43;;
53652;SDS011;39553;52.954;5.932;2023-07-22T21:31:02;17.13;;;9.20;;
53652;SDS011;39553;52.954;5.932;2023-07-22T21:33:28;20.50;;;9.73;;
53652;SDS011;39553;52.954;5.932;2023-07-22T21:35:54;18.80;;;9.60;;
53652;SDS011;39553;52.954;5.932;2023-07-22T21:38:19;16.85;;;10.18;;
53652;SDS011;39553;52.954;5.932;2023-07-22T21:40:53;21.25;;;10.25;;
53652;SDS011;39553;52.954;5.932;2023-07-22T21:43:19;20.17;;;10.50;;
53652;SDS011;39553;52.954;5.932;2023-07-22T21:45:46;20.70;;;8.95;;
53652;SDS011;39553;52.954;5.932;2023-07-22T21:48:12;19.08;;;8.98;;
53652;SDS011;39553;52.954;5.932;2023-07-22T21:50:38;17.08;;;8.80;;
53652;SDS011;39553;52.954;5.932;2023-07-22T21:53:05;17.35;;;9.00;;
53652;SDS011;39553;52.954;5.932;2023-07-22T21:55:32;21.10;;;9.63;;
53652;SDS011;39553;52.954;5.932;2023-07-22T21:57:59;17.33;;;9.65;;
53652;SDS011;39553;52.954;5.932;2023-07-22T22:00:26;22.27;;;10.18;;
53652;SDS011;39553;52.954;5.932;2023-07-22T22:02:53;22.65;;;10.07;;
53652;SDS011;39553;52.954;5.932;2023-07-22T22:05:19;20.40;;;10.48;;
53652;SDS011;39553;52.954;5.932;2023-07-22T22:07:45;23.85;;;10.75;;
53652;SDS011;39553;52.954;5.932;2023-07-22T22:10:11;23.10;;;10.52;;
53652;SDS011;39553;52.954;5.932;2023-07-22T22:12:37;20.35;;;10.88;;
53652;SDS011;39553;52.954;5.932;2023-07-22T22:15:03;20.10;;;10.23;;
53652;SDS011;39553;52.954;5.932;2023-07-22T22:17:29;26.60;;;10.85;;
53652;SDS011;39553;52.954;5.932;2023-07-22T22:19:55;18.17;;;9.48;;
53652;SDS011;39553;52.954;5.932;2023-07-22T22:22:21;20.13;;;10.63;;
53652;SDS011;39553;52.954;5.932;2023-07-22T22:24:47;19.60;;;10.30;;
53652;SDS011;39553;52.954;5.932;2023-07-22T22:27:13;19.67;;;10.77;;
53652;SDS011;39553;52.954;5.932;2023-07-22T22:29:40;21.30;;;10.05;;
53652;SDS011;39553;52.954;5.932;2023-07-22T22:32:05;18.45;;;10.48;;
53652;SDS011;39553;52.954;5.932;2023-07-22T22:34:32;22.10;;;10.05;;
53652;SDS011;39553;52.954;5.932;2023-07-22T22:36:57;21.60;;;10.77;;
53652;SDS011;39553;52.954;5.932;2023-07-22T22:39:26;19.30;;;10.88;;
53652;SDS011;39553;52.954;5.932;2023-07-22T22:41:52;24.58;;;11.90;;